Time;durP1;ratioP1;P1;durP2;ratioP2;P2;SDS_P1;SDS_P2;PMS_P1;PMS_P2;Temp;Humidity;BMP_temperature;BMP_pressure;BME280_temperature;BME280_humidity;BME280_pressure;Samples;Min_cycle;Max_cycle;Signal;HPM_P1;HPM_P2
2021/05/14 07:55:36;;;;;;;1.20;1.00;;;14.00;97.60;;;;;;5147340;27;21029;-73
2021/05/14 07:58:02;;;;;;;1.20;1.00;;;14.20;96.00;;;;;;5128538;28;20451;-73
2021/05/14 08:02:44;;;;;;;1.20;1.00;;;14.60;96.90;;;;;;5149274;27;20546;-73
2021/05/14 08:05:12;;;;;;;1.20;1.00;;;14.90;95.00;;;;;;5126617;28;20482;-74
2021/05/14 08:07:39;;;;;;;2.57;1.20;;;15.00;94.30;;;;;;5128366;27;20544;-73
2021/05/14 08:10:07;;;;;;;1.20;1.00;;;15.10;94.10;;;;;;5126599;27;20556;-74
2021/05/14 08:12:34;;;;;;;1.20;0.90;;;15.00;93.30;;;;;;5127264;28;20526;-73
2021/05/14 08:15:02;;;;;;;1.20;1.00;;;15.10;94.40;;;;;;5126593;27;20445;-74
2021/05/14 08:17:29;;;;;;;1.20;1.00;;;15.30;93.20;;;;;;5127133;28;20832;-73
2021/05/14 08:19:56;;;;;;;1.40;1.10;;;15.60;94.40;;;;;;5126327;27;20455;-72
2021/05/14 08:22:23;;;;;;;1.20;1.03;;;15.80;93.30;;;;;;5128262;27;20478;-73
2021/05/14 08:24:49;;;;;;;1.57;1.20;;;15.90;90.70;;;;;;5126626;27;20449;-74
2021/05/14 08:27:16;;;;;;;1.20;1.00;;;15.50;90.50;;;;;;5126467;27;20496;-73
2021/05/14 08:29:42;;;;;;;1.20;0.90;;;15.40;93.00;;;;;;5125847;27;20452;-74
2021/05/14 08:32:09;;;;;;;1.20;1.00;;;15.40;92.90;;;;;;5128244;27;20546;-74
2021/05/14 08:34:35;;;;;;;1.20;1.00;;;15.40;91.80;;;;;;5125899;27;21144;-74
2021/05/14 08:37:02;;;;;;;1.20;1.00;;;15.50;92.60;;;;;;5127690;27;21025;-73
2021/05/14 08:39:29;;;;;;;1.20;1.03;;;15.70;92.60;;;;;;5125681;27;20461;-74
2021/05/14 08:41:55;;;;;;;1.20;1.00;;;15.60;89.90;;;;;;5126677;28;20487;-74
2021/05/14 08:44:22;;;;;;;1.50;1.17;;;15.50;91.80;;;;;;5125461;27;20493;-74
2021/05/14 08:46:49;;;;;;;1.77;1.20;;;15.60;93.00;;;;;;5127640;27;20824;-74
2021/05/14 08:49:16;;;;;;;1.20;1.00;;;15.70;92.50;;;;;;5125471;27;21023;-74
2021/05/14 08:51:42;;;;;;;1.20;1.10;;;15.60;91.70;;;;;;5126473;28;20448;-74
2021/05/14 08:54:10;;;;;;;1.20;1.10;;;15.60;91.00;;;;;;5125288;27;20492;-74
2021/05/14 08:56:40;;;;;;;1.20;1.00;;;15.50;92.30;;;;;;5127548;27;20503;-73
2021/05/14 08:59:06;;;;;;;1.20;1.00;;;15.40;91.60;;;;;;5125159;27;20463;-73
2021/05/14 09:01:34;;;;;;;1.20;1.00;;;15.20;92.90;;;;;;5127392;27;20512;-73
2021/05/14 09:04:03;;;;;;;1.20;1.07;;;15.10;92.90;;;;;;5124900;27;20477;-74
2021/05/14 09:06:32;;;;;;;1.20;1.00;;;15.10;93.10;;;;;;5127507;27;20900;-74
2021/05/14 09:09:01;;;;;;;1.20;1.00;;;15.00;92.80;;;;;;5125239;27;20464;-74
2021/05/14 09:11:40;;;;;;;1.30;1.20;;;15.10;92.30;;;;;;5127421;27;20464;-73
2021/05/14 09:14:08;;;;;;;1.20;1.10;;;15.20;91.70;;;;;;5110762;27;20464;-74
2021/05/14 09:16:43;;;;;;;1.20;1.00;;;15.50;92.80;;;;;;5113568;28;20455;-73
2021/05/14 09:19:10;;;;;;;1.20;1.00;;;15.60;91.90;;;;;;5109611;28;20501;-74
2021/05/14 09:21:37;;;;;;;1.20;1.00;;;15.60;91.60;;;;;;5113556;28;20484;-74
2021/05/14 09:24:05;;;;;;;1.20;1.00;;;15.60;90.30;;;;;;5111066;28;20450;-75
2021/05/14 09:26:32;;;;;;;1.20;1.00;;;16.00;92.80;;;;;;5113881;28;20510;-75
2021/05/14 09:29:00;;;;;;;1.20;1.00;;;16.20;92.40;;;;;;5110988;28;20554;-77
2021/05/14 09:31:27;;;;;;;1.20;1.00;;;16.50;91.90;;;;;;5115053;27;20462;-77
2021/05/14 09:33:56;;;;;;;1.20;1.00;;;16.80;88.80;;;;;;5113797;28;20455;-74
2021/05/14 09:36:24;;;;;;;1.20;1.00;;;16.80;92.00;;;;;;5113744;28;20463;-73
2021/05/14 09:38:52;;;;;;;1.20;1.10;;;16.80;89.00;;;;;;5113681;28;20450;-76
2021/05/14 09:41:33;;;;;;;1.30;1.10;;;16.70;88.50;;;;;;5111845;27;20899;-74
2021/05/14 09:44:03;;;;;;;1.20;1.00;;;16.90;92.00;;;;;;5111300;28;20519;-75
2021/05/14 09:46:32;;;;;;;1.20;1.00;;;17.30;92.60;;;;;;5113437;28;20465;-74
2021/05/14 09:49:00;;;;;;;1.20;1.10;;;17.60;90.60;;;;;;5111997;28;20451;-76
2021/05/14 09:51:28;;;;;;;2.30;1.10;;;18.00;89.10;;;;;;5113633;28;20809;-75
2021/05/14 09:53:55;;;;;;;1.20;1.00;;;17.90;85.60;;;;;;5112360;28;20461;-75
2021/05/14 09:56:28;;;;;;;1.20;1.00;;;17.70;87.10;;;;;;5111885;27;20805;-74
2021/05/14 09:58:57;;;;;;;1.20;1.00;;;17.40;85.80;;;;;;5113561;28;20451;-76
2021/05/14 10:01:24;;;;;;;1.20;1.00;;;17.50;87.50;;;;;;5111144;28;20512;-76
2021/05/14 10:03:56;;;;;;;1.20;1.00;;;17.50;85.80;;;;;;5113518;28;20459;-76
2021/05/14 10:06:24;;;;;;;1.30;1.20;;;17.70;87.10;;;;;;5111248;28;20989;-75
2021/05/14 10:08:52;;;;;;;2.80;1.30;;;17.80;86.90;;;;;;5112071;28;20451;-76
2021/05/14 10:11:22;;;;;;;1.60;1.30;;;17.70;87.40;;;;;;5111164;28;20793;-76
2021/05/14 10:13:52;;;;;;;1.20;1.10;;;17.60;86.20;;;;;;5113845;27;20538;-75
2021/05/14 10:16:19;;;;;;;1.20;1.00;;;17.20;85.20;;;;;;5110113;28;20794;-75
2021/05/14 10:18:50;;;;;;;1.30;1.10;;;17.00;86.10;;;;;;5112930;28;20890;-74
2021/05/14 10:21:18;;;;;;;1.20;1.00;;;17.00;87.20;;;;;;5110271;28;20963;-73
2021/05/14 10:23:45;;;;;;;1.20;1.00;;;16.80;87.20;;;;;;5112475;28;20855;-75
2021/05/14 10:26:13;;;;;;;1.20;1.10;;;16.60;86.90;;;;;;5111358;28;20461;-75
2021/05/14 10:28:44;;;;;;;1.20;1.10;;;16.40;87.60;;;;;;5118991;28;20463;-75
2021/05/14 10:31:17;;;;;;;1.40;1.10;;;16.20;87.30;;;;;;5112416;28;20829;-73
2021/05/14 10:33:46;;;;;;;1.20;1.00;;;16.20;89.70;;;;;;5112715;28;20507;-73
2021/05/14 10:36:54;;;;;;;2.33;1.13;;;16.40;88.90;;;;;;5109065;28;20463;-76
2021/05/14 10:39:32;;;;;;;1.73;1.20;;;16.40;87.40;;;;;;5110318;28;20458;-75
2021/05/14 10:42:06;;;;;;;1.20;1.00;;;16.50;87.20;;;;;;5114633;28;20506;-76
2021/05/14 10:44:51;;;;;;;1.20;1.00;;;17.10;87.50;;;;;;5108996;28;20462;-74
2021/05/14 10:47:47;;;;;;;1.20;1.10;;;17.80;86.30;;;;;;5112703;28;20458;-75
2021/05/14 10:50:36;;;;;;;1.20;1.00;;;18.40;83.50;;;;;;5104833;28;20451;-75
2021/05/14 10:53:40;;;;;;;1.20;1.07;;;18.60;82.90;;;;;;5113715;28;20530;-75
2021/05/14 10:56:49;;;;;;;1.20;1.20;;;18.40;85.40;;;;;;5110012;27;20454;-75
2021/05/14 10:59:34;;;;;;;1.20;1.10;;;17.30;86.90;;;;;;5110305;27;20465;-76
2021/05/14 11:02:01;;;;;;;1.20;1.03;;;16.90;91.10;;;;;;5110985;28;20484;-76
2021/05/14 11:04:45;;;;;;;1.20;1.10;;;16.80;93.60;;;;;;5111732;28;21224;-77
2021/05/14 11:07:35;;;;;;;1.20;1.03;;;16.70;94.50;;;;;;5112596;28;20453;-76
2021/05/14 11:10:27;;;;;;;1.20;1.00;;;16.80;92.70;;;;;;5110341;28;20462;-76
2021/05/14 11:12:54;;;;;;;1.20;1.00;;;16.90;91.60;;;;;;5114023;28;20812;-76
2021/05/14 11:15:35;;;;;;;1.20;1.10;;;16.90;91.80;;;;;;5109584;28;20462;-76
2021/05/14 11:18:26;;;;;;;1.20;1.10;;;17.00;91.20;;;;;;5111943;28;20980;-76
2021/05/14 11:20:55;;;;;;;1.20;1.10;;;17.00;87.20;;;;;;5094607;28;20486;-76
2021/05/14 11:23:38;;;;;;;1.20;1.20;;;17.10;87.60;;;;;;5112359;28;20777;-76
2021/05/14 11:26:06;;;;;;;1.20;1.00;;;17.10;86.90;;;;;;5110061;28;20462;-76
2021/05/14 11:28:44;;;;;;;1.20;1.10;;;17.40;87.10;;;;;;5111936;28;20465;-76
2021/05/14 11:31:17;;;;;;;1.20;1.00;;;17.50;87.40;;;;;;5110588;28;21097;-77
2021/05/14 11:33:45;;;;;;;1.20;1.00;;;17.40;84.40;;;;;;5113468;28;20511;-76
2021/05/14 11:36:13;;;;;;;1.20;1.10;;;16.90;87.10;;;;;;5115228;28;20455;-76
2021/05/14 11:38:48;;;;;;;1.20;1.10;;;16.50;90.40;;;;;;5117426;28;20812;-76
2021/05/14 11:41:26;;;;;;;1.20;1.10;;;16.20;91.50;;;;;;5118713;28;20477;-77
2021/05/14 11:43:59;;;;;;;1.20;1.03;;;15.90;92.30;;;;;;5112255;28;20467;-77
2021/05/14 11:46:27;;;;;;;1.20;1.00;;;15.70;94.90;;;;;;5111343;28;20459;-74
2021/05/14 11:48:54;;;;;;;1.20;1.10;;;15.60;96.30;;;;;;5112925;28;20453;-74
2021/05/14 11:51:24;;;;;;;1.20;1.10;;;15.60;98.00;;;;;;5109933;28;20470;-74
2021/05/14 11:53:56;;;;;;;1.50;1.20;;;15.90;98.00;;;;;;5112434;28;20548;-76
2021/05/14 11:56:32;;;;;;;1.20;1.00;;;16.40;92.70;;;;;;5115061;28;20453;-76
2021/05/14 11:58:59;;;;;;;1.20;1.10;;;16.60;93.10;;;;;;5115384;28;20454;-77
2021/05/14 12:01:38;;;;;;;1.20;1.00;;;16.50;90.30;;;;;;5109079;28;20479;-77
2021/05/14 12:04:05;;;;;;;1.20;1.10;;;16.50;90.70;;;;;;5112595;28;20462;-77
2021/05/14 12:06:32;;;;;;;1.20;1.00;;;16.30;92.70;;;;;;5109727;28;20501;-77
2021/05/14 12:09:10;;;;;;;1.20;1.00;;;16.30;94.70;;;;;;5111402;28;20780;-77
2021/05/14 12:11:36;;;;;;;1.20;1.00;;;16.40;91.60;;;;;;5108845;28;20454;-77
2021/05/14 12:14:03;;;;;;;1.57;1.10;;;16.70;91.80;;;;;;5111319;28;20450;-76
2021/05/14 12:16:30;;;;;;;1.20;1.00;;;17.40;91.80;;;;;;5108495;28;20470;-76
2021/05/14 12:18:58;;;;;;;1.20;1.10;;;18.10;88.30;;;;;;5111132;28;20514;-75
2021/05/14 12:21:27;;;;;;;1.20;1.10;;;18.50;84.40;;;;;;5108145;28;20565;-73
2021/05/14 12:23:54;;;;;;;1.20;1.00;;;18.80;83.30;;;;;;5111128;28;20478;-75
2021/05/14 12:26:22;;;;;;;1.20;1.00;;;19.20;81.90;;;;;;5108627;28;20466;-75
2021/05/14 12:28:49;;;;;;;1.20;1.00;;;19.50;82.30;;;;;;5111054;28;20458;-75
2021/05/14 12:31:22;;;;;;;1.20;1.10;;;19.70;79.50;;;;;;5108412;28;20500;-72
2021/05/14 12:33:49;;;;;;;1.20;1.00;;;20.00;81.90;;;;;;5109656;28;20829;-73
2021/05/14 12:36:23;;;;;;;1.20;1.03;;;20.30;79.80;;;;;;5108569;28;20459;-71
2021/05/14 12:38:50;;;;;;;1.20;1.00;;;20.70;79.70;;;;;;5111095;28;20866;-73
2021/05/14 12:41:27;;;;;;;2.33;1.17;;;20.60;78.40;;;;;;5106232;28;20996;-74
2021/05/14 12:44:15;;;;;;;1.20;1.10;;;20.20;77.20;;;;;;5109502;28;20455;-72
2021/05/14 12:47:01;;;;;;;1.20;1.10;;;20.50;79.70;;;;;;5108549;28;20459;-72
2021/05/14 12:49:28;;;;;;;1.20;1.10;;;20.70;76.20;;;;;;5113414;28;20478;-73
2021/05/14 12:52:03;;;;;;;1.30;1.10;;;20.80;74.30;;;;;;5112264;28;20450;-76
2021/05/14 12:54:31;;;;;;;1.50;1.10;;;21.20;77.40;;;;;;5113502;28;20461;-75
2021/05/14 12:56:58;;;;;;;1.20;1.10;;;21.60;74.60;;;;;;5112709;28;20460;-73
2021/05/14 12:59:25;;;;;;;1.20;1.10;;;21.60;73.70;;;;;;5114657;28;20455;-74
2021/05/14 13:01:55;;;;;;;1.20;1.00;;;21.50;71.60;;;;;;5111188;28;20989;-75
2021/05/14 13:04:28;;;;;;;1.20;1.10;;;21.60;70.40;;;;;;5114583;28;20461;-76
2021/05/14 13:07:02;;;;;;;1.30;1.10;;;21.80;67.60;;;;;;5112137;28;20450;-74
2021/05/14 13:09:29;;;;;;;1.20;1.00;;;21.80;69.90;;;;;;5114518;27;20458;-74
2021/05/14 13:11:57;;;;;;;1.20;1.03;;;22.00;69.90;;;;;;5112410;28;20455;-73
2021/05/14 13:14:24;;;;;;;1.20;1.00;;;22.00;67.70;;;;;;5114839;28;20526;-72
2021/05/14 13:16:51;;;;;;;1.30;1.20;;;21.90;70.00;;;;;;5111838;28;20483;-74
2021/05/14 13:19:18;;;;;;;1.50;1.17;;;22.00;67.50;;;;;;5114420;27;20447;-73
2021/05/14 13:21:44;;;;;;;1.40;1.10;;;21.90;68.30;;;;;;5112450;28;20481;-72
2021/05/14 13:24:11;;;;;;;1.20;1.10;;;22.00;66.60;;;;;;5114475;28;20915;-73
2021/05/14 13:26:37;;;;;;;1.20;1.00;;;22.20;69.10;;;;;;5111870;28;20791;-73
2021/05/14 13:29:05;;;;;;;1.20;1.07;;;22.40;67.20;;;;;;5114367;28;20824;-73
2021/05/14 13:31:31;;;;;;;1.20;1.10;;;22.60;68.70;;;;;;5112334;28;20502;-73
2021/05/14 13:33:58;;;;;;;1.20;1.00;;;22.70;66.60;;;;;;5114516;28;20455;-73
2021/05/14 13:36:24;;;;;;;1.20;1.10;;;22.60;64.60;;;;;;5112091;28;20554;-73
2021/05/14 13:38:51;;;;;;;1.50;1.10;;;23.00;67.60;;;;;;5114627;28;20451;-74
2021/05/14 13:41:17;;;;;;;1.20;1.00;;;23.30;66.30;;;;;;5111920;28;21002;-74
2021/05/14 13:43:46;;;;;;;1.20;1.10;;;23.10;66.20;;;;;;5114329;28;20466;-73
2021/05/14 13:46:13;;;;;;;1.40;1.20;;;23.40;66.20;;;;;;5111802;28;20454;-74
2021/05/14 13:48:40;;;;;;;1.30;1.10;;;23.50;65.40;;;;;;5114332;28;20459;-74
2021/05/14 13:51:06;;;;;;;1.30;1.10;;;23.70;65.90;;;;;;5111575;28;20944;-74
2021/05/14 13:53:33;;;;;;;1.20;1.10;;;23.90;63.00;;;;;;5114018;28;20459;-74
2021/05/14 13:55:59;;;;;;;1.20;1.10;;;23.60;65.30;;;;;;5111702;27;20459;-76
2021/05/14 13:58:26;;;;;;;1.20;1.10;;;23.80;65.90;;;;;;5113832;28;20462;-74
2021/05/14 14:00:53;;;;;;;1.20;1.07;;;24.10;60.60;;;;;;5110785;28;20463;-76
2021/05/14 14:06:03;;;;;;;1.20;1.10;;;23.80;62.60;;;;;;5108373;28;20791;-76
2021/05/14 14:08:29;;;;;;;1.20;1.10;;;23.50;63.40;;;;;;5113924;28;20459;-76
2021/05/14 14:10:56;;;;;;;1.20;1.10;;;23.70;62.30;;;;;;5109499;28;20467;-76
2021/05/14 14:13:27;;;;;;;1.20;1.10;;;23.40;62.50;;;;;;5113578;28;20465;-74
2021/05/14 14:15:54;;;;;;;1.20;1.10;;;23.40;63.70;;;;;;5111832;28;20451;-74
2021/05/14 14:18:22;;;;;;;1.20;1.10;;;23.80;64.60;;;;;;5113799;28;20492;-75
2021/05/14 14:20:48;;;;;;;1.30;1.10;;;24.20;63.30;;;;;;5110797;28;20451;-74
2021/05/14 14:23:15;;;;;;;3.33;1.20;;;24.60;63.40;;;;;;5113669;28;20520;-74
2021/05/14 14:25:41;;;;;;;1.40;1.30;;;24.70;64.90;;;;;;5109961;28;20512;-74
2021/05/14 14:28:08;;;;;;;1.20;1.10;;;24.90;61.80;;;;;;5113533;28;20459;-74
2021/05/14 14:30:35;;;;;;;1.20;1.20;;;24.80;62.80;;;;;;5109691;28;20477;-73
2021/05/14 14:33:02;;;;;;;1.20;1.10;;;24.80;64.70;;;;;;5113376;28;21077;-73
2021/05/14 14:35:29;;;;;;;1.20;1.10;;;25.00;63.30;;;;;;5110686;28;20494;-73
2021/05/14 14:37:56;;;;;;;1.77;1.20;;;25.10;62.00;;;;;;5113338;28;20459;-74
2021/05/14 14:40:23;;;;;;;1.20;1.20;;;24.80;63.20;;;;;;5110763;28;20503;-73
2021/05/14 14:42:49;;;;;;;1.20;1.13;;;24.30;63.00;;;;;;5111774;28;20505;-74
2021/05/14 14:45:16;;;;;;;1.20;1.00;;;24.30;63.80;;;;;;5110309;28;20959;-73
2021/05/14 14:47:43;;;;;;;1.20;1.10;;;24.40;63.20;;;;;;5111717;28;20459;-73
2021/05/14 14:50:11;;;;;;;1.20;1.20;;;24.40;64.20;;;;;;5110136;28;20458;-73
2021/05/14 14:52:42;;;;;;;1.30;1.20;;;24.60;62.90;;;;;;5112933;27;20486;-74
2021/05/14 14:55:10;;;;;;;1.27;1.17;;;24.50;62.90;;;;;;5109847;28;20463;-74
2021/05/14 14:57:36;;;;;;;1.20;1.00;;;24.80;61.60;;;;;;5112821;28;20463;-74
2021/05/14 15:00:05;;;;;;;1.20;1.10;;;24.70;62.80;;;;;;5109862;28;20490;-74
2021/05/14 15:02:32;;;;;;;2.80;1.10;;;24.40;63.00;;;;;;5112394;28;20877;-73
2021/05/14 15:05:02;;;;;;;1.20;1.20;;;24.10;63.10;;;;;;5110027;28;20819;-74
2021/05/14 15:07:33;;;;;;;1.20;1.20;;;24.20;62.30;;;;;;5112533;28;20463;-73
2021/05/14 15:10:04;;;;;;;1.20;1.10;;;23.90;62.80;;;;;;5110724;28;20477;-74
2021/05/14 15:12:31;;;;;;;1.27;1.13;;;23.90;62.90;;;;;;5112350;28;20451;-74
2021/05/14 15:14:59;;;;;;;1.30;1.10;;;23.40;62.00;;;;;;5112652;28;20447;-72
2021/05/14 15:17:26;;;;;;;1.30;1.27;;;22.70;64.20;;;;;;5111949;28;20516;-74
2021/05/14 15:19:53;;;;;;;1.23;1.10;;;21.50;65.40;;;;;;5112317;28;20458;-73
2021/05/14 15:22:20;;;;;;;1.20;1.10;;;21.20;67.60;;;;;;5109151;28;20544;-73
2021/05/14 15:24:47;;;;;;;1.20;1.07;;;20.80;68.50;;;;;;5110352;28;20885;-72
2021/05/14 15:27:14;;;;;;;1.20;1.10;;;20.70;77.30;;;;;;5109807;28;20459;-73
2021/05/14 15:29:42;;;;;;;1.20;1.00;;;20.80;76.00;;;;;;5112499;28;20883;-73
2021/05/14 15:32:09;;;;;;;1.20;1.20;;;20.70;72.40;;;;;;5109884;28;20441;-71
2021/05/14 15:34:36;;;;;;;1.30;1.17;;;20.60;70.70;;;;;;5112209;28;20455;-71
2021/05/14 15:37:02;;;;;;;1.20;1.10;;;20.10;71.90;;;;;;5108380;28;20554;-71
2021/05/14 15:39:31;;;;;;;1.30;1.10;;;20.00;72.70;;;;;;5110934;28;20461;-70
2021/05/14 15:41:58;;;;;;;1.20;1.00;;;19.90;74.10;;;;;;5109232;28;20482;-71
2021/05/14 15:44:27;;;;;;;1.20;1.00;;;19.80;74.90;;;;;;5112056;28;20497;-72
2021/05/14 15:46:56;;;;;;;1.20;1.10;;;19.70;75.40;;;;;;5109287;28;20451;-72
2021/05/14 15:49:22;;;;;;;1.20;1.00;;;19.50;75.60;;;;;;5111823;28;20481;-72
2021/05/14 15:51:51;;;;;;;1.20;1.00;;;19.40;76.80;;;;;;5109063;28;20454;-72
2021/05/14 15:54:17;;;;;;;1.20;1.00;;;19.20;77.80;;;;;;5111184;28;20462;-72
2021/05/14 15:56:44;;;;;;;1.20;1.00;;;18.90;77.70;;;;;;5108694;28;20451;-72
2021/05/14 15:59:10;;;;;;;1.20;1.10;;;18.60;78.90;;;;;;5111051;28;20504;-72
2021/05/14 16:01:38;;;;;;;1.93;1.20;;;18.60;81.60;;;;;;5108325;28;20891;-72
2021/05/14 16:04:04;;;;;;;1.20;1.10;;;18.70;82.40;;;;;;5111732;28;20857;-72
2021/05/14 16:06:31;;;;;;;1.20;1.07;;;18.70;83.40;;;;;;5109264;28;20451;-71
2021/05/14 16:09:01;;;;;;;1.23;1.10;;;18.70;82.70;;;;;;5109914;28;20451;-71
2021/05/14 16:11:29;;;;;;;1.20;1.03;;;18.80;83.00;;;;;;5108492;28;20451;-71
2021/05/14 16:13:55;;;;;;;1.20;1.10;;;19.40;83.50;;;;;;5111150;28;20462;-72
2021/05/14 16:16:22;;;;;;;1.20;1.10;;;19.80;81.30;;;;;;5108894;28;20455;-72
2021/05/14 16:18:51;;;;;;;1.50;1.20;;;20.20;80.10;;;;;;5111081;28;20458;-72
2021/05/14 16:21:18;;;;;;;1.20;1.10;;;20.60;77.10;;;;;;5107022;28;20451;-70
2021/05/14 16:23:45;;;;;;;1.20;1.10;;;20.70;75.60;;;;;;5112728;28;20854;-71
2021/05/14 16:26:11;;;;;;;1.20;1.00;;;21.20;74.40;;;;;;5113105;28;20481;-71
2021/05/14 16:28:38;;;;;;;1.30;1.20;;;21.40;73.00;;;;;;5115074;28;20455;-72
2021/05/14 16:31:04;;;;;;;1.30;1.10;;;21.00;72.40;;;;;;5112574;28;20458;-72
2021/05/14 16:33:31;;;;;;;1.20;1.10;;;20.80;74.90;;;;;;5115185;28;20951;-73
2021/05/14 16:35:58;;;;;;;1.20;1.00;;;20.30;69.10;;;;;;5112421;28;20461;-73
2021/05/14 16:38:27;;;;;;;1.20;1.00;;;20.10;70.10;;;;;;5115033;28;20458;-72
2021/05/14 16:40:54;;;;;;;1.30;1.10;;;19.90;70.90;;;;;;5111456;28;20999;-71
2021/05/14 16:43:20;;;;;;;1.20;1.10;;;19.90;73.20;;;;;;5114861;28;20486;-72
2021/05/14 16:45:47;;;;;;;1.20;1.07;;;20.10;71.90;;;;;;5110319;28;21068;-70
2021/05/14 16:48:13;;;;;;;1.20;1.10;;;20.20;71.70;;;;;;5114765;28;20450;-70
2021/05/14 16:50:40;;;;;;;1.20;1.03;;;20.30;71.00;;;;;;5111956;28;20827;-71
2021/05/14 16:53:07;;;;;;;1.20;1.00;;;20.40;70.60;;;;;;5114541;28;20455;-72
2021/05/14 16:55:34;;;;;;;1.20;1.00;;;20.40;71.40;;;;;;5111703;28;20496;-72
2021/05/14 16:58:01;;;;;;;1.20;1.00;;;20.50;71.40;;;;;;5114898;28;20458;-72
2021/05/14 17:00:28;;;;;;;1.30;1.10;;;20.40;72.20;;;;;;5111625;28;20474;-71
2021/05/14 17:02:57;;;;;;;1.20;1.10;;;20.10;73.20;;;;;;5114829;28;20539;-71
2021/05/14 17:05:35;;;;;;;1.20;1.10;;;20.00;74.00;;;;;;5111986;28;20490;-72
2021/05/14 17:08:02;;;;;;;1.60;1.10;;;19.90;75.30;;;;;;5113974;28;20528;-72
2021/05/14 17:10:30;;;;;;;1.80;1.20;;;19.80;76.60;;;;;;5112824;28;20483;-72
2021/05/14 17:12:57;;;;;;;1.20;1.10;;;19.70;73.40;;;;;;5114723;28;20516;-72
2021/05/14 17:15:23;;;;;;;1.20;1.10;;;19.60;72.40;;;;;;5112019;28;20940;-72
2021/05/14 17:17:51;;;;;;;1.20;1.10;;;19.30;74.20;;;;;;5114612;28;20463;-72
2021/05/14 17:20:20;;;;;;;1.20;1.10;;;19.30;75.10;;;;;;5112393;28;20447;-72
2021/05/14 17:22:48;;;;;;;1.20;1.10;;;19.30;76.20;;;;;;5114501;28;20523;-72
2021/05/14 17:25:16;;;;;;;1.20;1.10;;;19.30;76.40;;;;;;5112473;28;20443;-72
2021/05/14 17:27:44;;;;;;;1.40;1.10;;;19.30;76.40;;;;;;5114646;28;20462;-71
2021/05/14 17:30:12;;;;;;;1.20;1.00;;;19.10;77.30;;;;;;5114042;28;20451;-72
2021/05/14 17:32:39;;;;;;;1.30;1.20;;;19.00;77.70;;;;;;5113289;28;20459;-72
2021/05/14 17:35:06;;;;;;;1.20;1.00;;;18.70;78.60;;;;;;5114081;28;20455;-72
2021/05/14 17:37:32;;;;;;;1.20;1.10;;;18.60;78.90;;;;;;5111878;28;20457;-72
2021/05/14 17:39:59;;;;;;;1.30;1.10;;;18.40;78.50;;;;;;5114362;27;20497;-72
2021/05/14 17:42:26;;;;;;;1.20;1.00;;;18.20;79.10;;;;;;5111510;28;20550;-72
2021/05/14 17:44:53;;;;;;;1.30;1.07;;;18.00;80.00;;;;;;5114230;28;20451;-72
2021/05/14 17:47:20;;;;;;;1.20;1.00;;;17.70;80.90;;;;;;5112103;28;20537;-71
2021/05/14 17:49:46;;;;;;;1.77;1.67;;;17.50;80.50;;;;;;5114018;28;20524;-73
2021/05/14 17:52:13;;;;;;;1.20;1.00;;;17.40;82.30;;;;;;5111918;28;20867;-72
2021/05/14 17:54:39;;;;;;;1.20;1.10;;;17.50;82.50;;;;;;5114331;28;20459;-72
2021/05/14 17:57:06;;;;;;;1.20;1.00;;;17.50;81.40;;;;;;5112352;28;20459;-72
2021/05/14 17:59:32;;;;;;;1.30;1.13;;;17.50;81.40;;;;;;5114221;28;20451;-72
2021/05/14 18:01:59;;;;;;;1.20;1.10;;;17.60;81.60;;;;;;5111391;28;20483;-72
2021/05/14 18:04:26;;;;;;;1.20;1.10;;;17.60;82.60;;;;;;5114121;28;20443;-72
2021/05/14 18:06:52;;;;;;;1.20;1.00;;;17.50;82.30;;;;;;5112109;28;20486;-72
2021/05/14 18:09:19;;;;;;;1.20;1.00;;;17.60;82.40;;;;;;5113803;28;20984;-72
2021/05/14 18:11:46;;;;;;;1.20;1.00;;;17.60;81.40;;;;;;5111637;28;20773;-72
2021/05/14 18:14:13;;;;;;;1.40;1.20;;;17.60;80.70;;;;;;5113874;28;20462;-72
2021/05/14 18:16:40;;;;;;;1.20;1.00;;;17.60;81.40;;;;;;5110667;28;20455;-72
2021/05/14 18:21:48;;;;;;;1.20;1.10;;;17.50;80.80;;;;;;5110769;28;20901;-73
2021/05/14 18:24:15;;;;;;;1.20;1.00;;;17.50;80.00;;;;;;5113352;28;20527;-72
2021/05/14 18:26:43;;;;;;;1.90;1.37;;;17.40;80.60;;;;;;5110437;28;20809;-73
2021/05/14 18:29:09;;;;;;;1.20;1.07;;;17.40;80.70;;;;;;5112089;28;20459;-72
2021/05/14 18:31:36;;;;;;;1.20;1.00;;;17.40;80.40;;;;;;5111123;28;20490;-73
2021/05/14 18:34:08;;;;;;;1.20;1.00;;;17.40;80.40;;;;;;5113218;27;20473;-72
2021/05/14 18:36:36;;;;;;;1.20;1.00;;;17.40;80.20;;;;;;5110392;28;20459;-73
2021/05/14 18:39:04;;;;;;;1.27;1.23;;;17.30;80.60;;;;;;5113146;28;20466;-73
2021/05/14 18:41:31;;;;;;;1.20;1.00;;;17.30;80.40;;;;;;5109423;28;20458;-72
2021/05/14 18:43:58;;;;;;;1.20;1.00;;;17.20;79.90;;;;;;5113054;28;20948;-73
2021/05/14 18:46:25;;;;;;;1.20;1.00;;;17.10;80.70;;;;;;5109340;28;20545;-72
2021/05/14 18:48:51;;;;;;;1.20;1.00;;;17.00;81.50;;;;;;5113148;28;20451;-73
2021/05/14 18:51:18;;;;;;;1.20;1.00;;;17.00;81.60;;;;;;5110854;28;20462;-72
2021/05/14 18:53:45;;;;;;;1.30;1.20;;;16.90;81.60;;;;;;5113119;28;20944;-73
2021/05/14 18:56:13;;;;;;;1.20;1.00;;;16.70;82.40;;;;;;5110436;28;20459;-73
2021/05/14 18:58:39;;;;;;;1.20;0.97;;;16.40;81.60;;;;;;5113243;28;20492;-72
2021/05/14 19:01:06;;;;;;;1.50;1.10;;;16.00;82.60;;;;;;5110747;28;20459;-72
2021/05/14 19:03:32;;;;;;;1.20;1.00;;;15.80;84.00;;;;;;5112934;28;20808;-73
2021/05/14 19:05:59;;;;;;;1.20;1.00;;;15.60;84.40;;;;;;5110280;28;20458;-72
2021/05/14 19:08:25;;;;;;;1.20;1.10;;;15.40;84.80;;;;;;5112822;28;20946;-73
2021/05/14 19:10:53;;;;;;;1.20;1.00;;;15.30;86.00;;;;;;5108868;28;20947;-73
2021/05/14 19:13:20;;;;;;;1.20;1.00;;;15.20;86.40;;;;;;5113193;28;20457;-73
2021/05/14 19:15:46;;;;;;;1.20;1.00;;;15.10;87.10;;;;;;5111126;28;20468;-72
2021/05/14 19:18:13;;;;;;;1.20;1.00;;;15.10;87.30;;;;;;5113434;28;20946;-72
2021/05/14 19:20:41;;;;;;;1.20;1.00;;;15.00;87.60;;;;;;5110557;28;20467;-72
2021/05/14 19:23:20;;;;;;;1.30;1.10;;;15.00;88.70;;;;;;5112864;28;20493;-72
2021/05/14 19:26:17;;;;;;;1.33;1.20;;;14.80;89.80;;;;;;5109534;28;20488;-73
2021/05/14 19:37:28;;;;;;;1.20;1.00;;;14.70;92.40;;;;;;5109870;28;20524;-72
2021/05/14 19:45:42;;;;;;;1.30;1.20;;;14.60;94.30;;;;;;5109787;28;20453;-73
2021/05/14 19:48:13;;;;;;;1.77;1.30;;;14.60;94.50;;;;;;5112595;28;20454;-73
2021/05/14 19:50:40;;;;;;;1.33;1.07;;;14.70;94.90;;;;;;5109567;28;20478;-72
2021/05/14 19:53:14;;;;;;;1.20;1.13;;;14.80;94.70;;;;;;5112315;28;20523;-72
2021/05/14 19:55:41;;;;;;;1.40;1.40;;;14.80;94.70;;;;;;5110019;28;20457;-72
2021/05/14 19:58:08;;;;;;;1.20;1.10;;;14.80;94.00;;;;;;5111964;28;20510;-71
2021/05/14 20:00:39;;;;;;;1.20;1.00;;;14.80;94.20;;;;;;5109521;28;22965;-73
2021/05/14 20:03:06;;;;;;;1.20;0.90;;;14.80;93.90;;;;;;5112206;28;20485;-72
2021/05/14 20:05:33;;;;;;;1.20;1.00;;;14.50;96.40;;;;;;5109329;28;20458;-71
2021/05/14 20:08:03;;;;;;;1.47;1.10;;;14.30;97.70;;;;;;5111918;28;20456;-71
2021/05/14 20:10:30;;;;;;;1.20;1.00;;;14.10;98.00;;;;;;5109258;28;21004;-71
2021/05/14 20:13:00;;;;;;;1.20;1.00;;;14.00;98.00;;;;;;5110455;28;20930;-71
2021/05/14 20:15:27;;;;;;;1.20;1.00;;;14.00;98.00;;;;;;5111768;28;20465;-71
2021/05/14 20:17:57;;;;;;;1.20;1.20;;;13.80;98.00;;;;;;5109265;28;20450;-73
2021/05/14 20:20:24;;;;;;;1.30;1.17;;;13.60;98.00;;;;;;5111796;28;20485;-73
2021/05/14 20:22:51;;;;;;;1.30;1.20;;;13.50;98.00;;;;;;5109245;28;21040;-72
2021/05/14 20:25:19;;;;;;;1.20;1.00;;;13.40;98.00;;;;;;5111679;28;20456;-72
2021/05/14 20:27:45;;;;;;;1.20;1.00;;;13.30;98.00;;;;;;5108622;28;20443;-74
2021/05/14 20:30:13;;;;;;;1.20;1.00;;;13.20;98.00;;;;;;5111338;28;20490;-71
2021/05/14 20:32:40;;;;;;;1.20;1.00;;;13.20;98.00;;;;;;5109092;28;20468;-71
2021/05/14 20:35:12;;;;;;;1.20;1.00;;;13.10;98.00;;;;;;5111361;28;20452;-75
2021/05/14 20:37:43;;;;;;;1.20;1.00;;;13.10;98.00;;;;;;5108776;28;20458;-71
2021/05/14 20:40:12;;;;;;;1.20;1.00;;;13.00;98.00;;;;;;5111615;28;20458;-71
2021/05/14 20:42:42;;;;;;;1.20;0.90;;;13.00;98.00;;;;;;5109114;28;20514;-71
2021/05/14 20:45:11;;;;;;;1.20;0.90;;;13.00;98.00;;;;;;5111664;28;20811;-70
2021/05/14 20:47:37;;;;;;;1.20;1.00;;;13.00;98.00;;;;;;5109065;28;20852;-71
2021/05/14 20:50:07;;;;;;;1.20;1.00;;;13.00;98.00;;;;;;5110081;28;20450;-72
2021/05/14 20:52:35;;;;;;;1.20;1.00;;;13.00;98.00;;;;;;5108263;28;20511;-71
2021/05/14 20:55:02;;;;;;;1.20;1.00;;;13.10;98.00;;;;;;5110873;28;20474;-73
2021/05/14 20:57:30;;;;;;;1.20;1.00;;;13.30;98.00;;;;;;5109647;28;20459;-74
2021/05/14 20:59:56;;;;;;;1.30;1.10;;;13.50;98.00;;;;;;5112041;28;20451;-74
2021/05/14 21:02:25;;;;;;;1.20;1.10;;;13.50;98.00;;;;;;5107996;28;20843;-75
2021/05/14 21:04:51;;;;;;;1.20;1.00;;;13.60;98.00;;;;;;5112313;28;20481;-75
2021/05/14 21:07:19;;;;;;;1.40;1.00;;;13.70;98.00;;;;;;5109829;28;20463;-74
2021/05/14 21:09:47;;;;;;;1.20;1.00;;;13.70;98.00;;;;;;5114714;28;20457;-73
2021/05/14 21:12:14;;;;;;;1.67;1.43;;;13.60;98.00;;;;;;5113048;28;20457;-75
2021/05/14 21:14:41;;;;;;;2.70;1.30;;;13.70;98.00;;;;;;5115081;28;20453;-75